createdAt,value
2019-02-04T00:00:09.210Z,95134.67
2019-02-04T00:02:35.887Z,95126.81
2019-02-04T00:05:02.539Z,95134.05
2019-02-04T00:07:29.198Z,95137.08
2019-02-04T00:09:55.899Z,95147.52
2019-02-04T00:12:22.570Z,95153.36
2019-02-04T00:14:49.229Z,95149.57
2019-02-04T00:17:16.112Z,95144.14
2019-02-04T00:19:42.774Z,95139.34
2019-02-04T00:22:09.427Z,95149.95
2019-02-04T00:24:36.098Z,95149.03
2019-02-04T00:27:02.754Z,95161.19
2019-02-04T00:29:29.468Z,95150.61
2019-02-04T00:31:56.120Z,95160.42
2019-02-04T00:34:22.780Z,95162.73
2019-02-04T00:36:49.453Z,95164.94
2019-02-04T00:39:16.157Z,95176.67
2019-02-04T00:41:42.855Z,95185.04
2019-02-04T00:44:09.519Z,95190.31
2019-02-04T00:46:36.207Z,95187.34
2019-02-04T00:49:02.864Z,95200.13
2019-02-04T00:51:29.574Z,95190.50
2019-02-04T00:53:56.237Z,95191.41
2019-02-04T00:56:22.937Z,95198.36
2019-02-04T00:58:49.605Z,95200.28
2019-02-04T01:01:16.265Z,95209.30
2019-02-04T01:03:42.923Z,95207.16
2019-02-04T01:06:09.623Z,95196.05
2019-02-04T01:08:36.285Z,95201.70
2019-02-04T01:11:02.955Z,95192.80
2019-02-04T01:13:29.640Z,95196.05
2019-02-04T01:15:56.300Z,95195.20
2019-02-04T01:18:22.927Z,95193.05
2019-02-04T01:20:49.607Z,95198.26
2019-02-04T01:23:16.245Z,95200.38
2019-02-04T01:25:42.893Z,95199.62
2019-02-04T01:28:09.531Z,95194.59
2019-02-04T01:30:36.212Z,95193.21
2019-02-04T01:33:02.847Z,95203.00
2019-02-04T01:35:29.531Z,95202.95
2019-02-04T01:37:56.281Z,95196.23
2019-02-04T01:40:22.929Z,95197.34
2019-02-04T01:42:49.575Z,95214.29
2019-02-04T01:45:16.225Z,95210.62
2019-02-04T01:47:42.877Z,95216.94
2019-02-04T01:50:09.576Z,95216.44
2019-02-04T01:52:36.217Z,95214.41
2019-02-04T01:55:02.902Z,95219.36
2019-02-04T01:57:29.553Z,95215.17
2019-02-04T01:59:56.364Z,95216.61
2019-02-04T02:02:22.999Z,95223.40
2019-02-04T02:04:49.644Z,95222.39
2019-02-04T02:07:16.296Z,95219.36
2019-02-04T02:09:42.955Z,95221.51
2019-02-04T02:12:09.597Z,95233.84
2019-02-04T02:14:36.283Z,95227.31
2019-02-04T02:17:02.936Z,95244.09
2019-02-04T02:19:29.677Z,95244.20
2019-02-04T02:21:56.266Z,95242.59
2019-02-04T02:24:22.904Z,95256.84
2019-02-04T02:26:49.591Z,95250.66
2019-02-04T02:29:16.238Z,95252.96
2019-02-04T02:31:42.880Z,95250.18
2019-02-04T02:34:09.521Z,95256.88
2019-02-04T02:36:36.151Z,95255.36
2019-02-04T02:39:02.799Z,95251.57
2019-02-04T02:41:29.532Z,95251.31
2019-02-04T02:43:56.188Z,95246.50
2019-02-04T02:46:22.840Z,95253.56
2019-02-04T02:48:49.533Z,95264.70
2019-02-04T02:51:16.212Z,95262.42
2019-02-04T02:53:42.840Z,95263.43
2019-02-04T02:56:09.493Z,95263.05
2019-02-04T02:58:36.139Z,95269.64
2019-02-04T03:01:02.819Z,95277.59
2019-02-04T03:03:29.460Z,95275.80
2019-02-04T03:05:56.114Z,95281.23
2019-02-04T03:08:22.753Z,95273.41
2019-02-04T03:10:49.438Z,95274.64
2019-02-04T03:13:16.125Z,95279.08
2019-02-04T03:15:42.787Z,95274.41
2019-02-04T03:18:09.450Z,95274.92
2019-02-04T03:20:36.129Z,95273.50
2019-02-04T03:23:02.774Z,95279.20
2019-02-04T03:25:29.452Z,95279.61
2019-02-04T03:27:56.094Z,95280.98
2019-02-04T03:30:22.743Z,95272.92
2019-02-04T03:32:49.474Z,95279.70
2019-02-04T03:35:16.127Z,95279.11
2019-02-04T03:37:42.865Z,95280.09
2019-02-04T03:40:09.431Z,95279.36
2019-02-04T03:42:36.116Z,95280.84
2019-02-04T03:45:02.860Z,95278.85
2019-02-04T03:47:29.510Z,95282.64
2019-02-04T03:49:56.150Z,95282.41
2019-02-04T03:52:22.792Z,95287.45
2019-02-04T03:54:49.440Z,95286.65
2019-02-04T03:57:16.119Z,95277.97
2019-02-04T03:59:42.763Z,95273.33
2019-02-04T04:02:09.411Z,95278.47
2019-02-04T04:04:36.071Z,95274.71
2019-02-04T04:07:02.747Z,95283.87
2019-02-04T04:09:29.384Z,95281.82
2019-02-04T04:11:56.069Z,95277.91
2019-02-04T04:14:22.711Z,95276.88
2019-02-04T04:16:49.348Z,95283.36
2019-02-04T04:19:16.017Z,95287.53
2019-02-04T04:21:42.705Z,95285.69
2019-02-04T04:24:09.344Z,95281.34
2019-02-04T04:26:35.985Z,95285.59
2019-02-04T04:29:02.649Z,95278.75
2019-02-04T04:31:29.341Z,95279.89
2019-02-04T04:33:55.983Z,95286.67
2019-02-04T04:36:22.620Z,95291.23
2019-02-04T04:38:49.286Z,95291.59
2019-02-04T04:41:15.929Z,95290.58
2019-02-04T04:43:42.720Z,95288.02
2019-02-04T04:46:09.294Z,95282.20
2019-02-04T04:48:35.951Z,95285.31
2019-02-04T04:51:02.598Z,95297.13
2019-02-04T04:53:29.257Z,95311.78
2019-02-04T04:55:55.898Z,95311.14
2019-02-04T04:58:22.549Z,95309.47
2019-02-04T05:00:49.195Z,95321.23
2019-02-04T05:03:15.852Z,95326.13
2019-02-04T05:05:42.484Z,95317.36
2019-02-04T05:08:09.131Z,95320.14
2019-02-04T05:10:39.205Z,95326.42
2019-02-04T05:13:05.845Z,95318.14
2019-02-04T05:15:32.514Z,95326.58
2019-02-04T05:17:59.158Z,95332.73
2019-02-04T05:20:25.797Z,95320.11
2019-02-04T05:22:52.436Z,95322.95
2019-02-04T05:25:19.077Z,95331.33
2019-02-04T05:27:45.734Z,95339.68
2019-02-04T05:30:12.380Z,95345.88
2019-02-04T05:32:39.031Z,95345.88
2019-02-04T05:35:05.682Z,95342.09
2019-02-04T05:37:32.324Z,95354.22
2019-02-04T05:39:58.982Z,95352.08
2019-02-04T05:42:25.722Z,95354.98
2019-02-04T05:44:52.377Z,95361.45
2019-02-04T05:47:19.029Z,95370.12
2019-02-04T05:49:45.681Z,95366.97
2019-02-04T05:52:12.326Z,95362.42
2019-02-04T05:54:38.991Z,95373.53
2019-02-04T05:57:05.637Z,95373.83
2019-02-04T05:59:32.318Z,95371.56
2019-02-04T06:01:58.956Z,95369.86
2019-02-04T06:04:25.671Z,95380.14
2019-02-04T06:06:52.311Z,95386.97
2019-02-04T06:09:18.949Z,95383.83
2019-02-04T06:11:46.991Z,95383.83
2019-02-04T06:14:12.253Z,95380.73
2019-02-04T06:16:38.901Z,95383.27
2019-02-04T06:19:05.567Z,95381.27
2019-02-04T06:21:32.204Z,95385.89
2019-02-04T06:23:58.869Z,95387.81
2019-02-04T06:26:25.529Z,95393.58
2019-02-04T06:28:52.160Z,95397.56
2019-02-04T06:31:18.810Z,95402.01
2019-02-04T06:33:45.556Z,95405.52
2019-02-04T06:36:12.098Z,95403.66
2019-02-04T06:38:38.746Z,95392.95
2019-02-04T06:41:05.387Z,95398.96
2019-02-04T06:43:32.044Z,95398.45
2019-02-04T06:45:58.689Z,95400.62
2019-02-04T06:48:25.329Z,95388.13
2019-02-04T06:50:51.989Z,95394.91
2019-02-04T06:53:18.628Z,95404.00
2019-02-04T06:55:45.278Z,95401.34
2019-02-04T06:58:11.980Z,95398.23
2019-02-04T07:00:38.630Z,95396.59
2019-02-04T07:03:05.330Z,95398.35
2019-02-04T07:05:43.141Z,95403.38
2019-02-04T07:07:58.647Z,95398.91
2019-02-04T07:10:25.299Z,95415.05
2019-02-04T07:12:51.954Z,95428.36
2019-02-04T07:15:18.590Z,95412.27
2019-02-04T07:17:45.287Z,95420.72
2019-02-04T07:20:12.054Z,95429.98
2019-02-04T07:22:38.683Z,95433.82
2019-02-04T07:25:05.357Z,95425.46
2019-02-04T07:27:32.020Z,95425.54
2019-02-04T07:29:58.783Z,95426.45
2019-02-04T07:32:25.458Z,95434.94
2019-02-04T07:34:52.145Z,95438.83
2019-02-04T07:37:18.794Z,95439.03
2019-02-04T07:39:45.438Z,95446.92
2019-02-04T07:42:15.194Z,95462.89
2019-02-04T07:44:41.903Z,95457.48
2019-02-04T07:47:08.738Z,95445.70
2019-02-04T07:49:35.690Z,95462.84
2019-02-04T07:52:02.046Z,95450.44
2019-02-04T07:54:28.739Z,95460.73
2019-02-04T07:56:55.429Z,95460.27
2019-02-04T07:59:22.081Z,95467.72
2019-02-04T08:01:48.789Z,95472.87
2019-02-04T08:04:15.466Z,95481.47
2019-02-04T08:06:42.106Z,95482.66
2019-02-04T08:09:08.748Z,95490.97
2019-02-04T08:11:35.429Z,95489.20
2019-02-04T08:14:02.081Z,95483.75
2019-02-04T08:16:28.738Z,95486.16
2019-02-04T08:18:55.429Z,95490.56
2019-02-04T08:21:22.536Z,95494.00
2019-02-04T08:23:49.191Z,95492.44
2019-02-04T08:26:15.842Z,95500.50
2019-02-04T08:28:42.484Z,95501.55
2019-02-04T08:31:09.198Z,95505.53
2019-02-04T08:33:35.851Z,95497.26
2019-02-04T08:36:02.578Z,95494.70
2019-02-04T08:38:29.231Z,95498.34
2019-02-04T08:40:55.881Z,95490.59
2019-02-04T08:43:22.593Z,95485.94
2019-02-04T08:45:49.246Z,95490.19
2019-02-04T08:48:15.891Z,95493.09
2019-02-04T08:50:42.567Z,95487.24
2019-02-04T08:53:09.221Z,95494.89
2019-02-04T08:55:35.883Z,95500.87
2019-02-04T08:58:02.546Z,95497.33
2019-02-04T09:00:29.229Z,95494.86
2019-02-04T09:02:55.868Z,95503.37
2019-02-04T09:05:22.526Z,95503.24
2019-02-04T09:07:49.632Z,95498.78
2019-02-04T09:10:16.280Z,95497.51
2019-02-04T09:12:42.936Z,95498.83
2019-02-04T09:15:09.601Z,95497.31
2019-02-04T09:17:36.298Z,95493.61
2019-02-04T09:20:09.823Z,95504.91
2019-02-04T09:22:29.594Z,95500.91
2019-02-04T09:24:56.249Z,95505.47
2019-02-04T09:27:23.022Z,95503.08
2019-02-04T09:29:49.683Z,95497.21
2019-02-04T09:32:16.394Z,95500.50
2019-02-04T09:34:43.071Z,95496.53
2019-02-04T09:37:09.761Z,95500.84
2019-02-04T09:39:36.538Z,95497.16
2019-02-04T09:42:03.238Z,95497.11
2019-02-04T09:44:29.927Z,95500.62
2019-02-04T09:46:56.688Z,95496.54
2019-02-04T09:49:23.383Z,95489.95
2019-02-04T09:51:50.054Z,95496.16
2019-02-04T09:54:16.807Z,95494.97
2019-02-04T09:56:43.492Z,95488.35
2019-02-04T09:59:10.158Z,95492.86
2019-02-04T10:01:36.798Z,95492.44
2019-02-04T10:04:03.448Z,95491.27
2019-02-04T10:06:30.142Z,95490.23
2019-02-04T10:08:56.897Z,95481.37
2019-02-04T10:11:23.571Z,95474.67
2019-02-04T10:13:50.237Z,95463.91
2019-02-04T10:16:16.921Z,95463.06
2019-02-04T10:18:43.567Z,95458.97
2019-02-04T10:21:10.331Z,95452.09
2019-02-04T10:23:36.914Z,95457.58
2019-02-04T10:26:03.572Z,95452.25
2019-02-04T10:28:30.204Z,95446.39
2019-02-04T10:30:56.886Z,95451.47
2019-02-04T10:33:23.568Z,95443.19
2019-02-04T10:35:50.257Z,95455.63
2019-02-04T10:38:16.918Z,95455.75
2019-02-04T10:40:43.610Z,95455.80
2019-02-04T10:43:10.217Z,95457.06
2019-02-04T10:45:36.963Z,95447.69
2019-02-04T10:48:03.617Z,95436.92
2019-02-04T10:50:30.223Z,95434.13
2019-02-04T10:52:56.878Z,95430.92
2019-02-04T10:55:23.559Z,95432.18
2019-02-04T10:57:50.253Z,95435.42
2019-02-04T11:00:16.836Z,95433.55
2019-02-04T11:02:43.490Z,95431.72
2019-02-04T11:05:10.136Z,95432.91
2019-02-04T11:07:36.815Z,95429.76
2019-02-04T11:10:04.688Z,95432.17
2019-02-04T11:12:30.155Z,95439.12
2019-02-04T11:14:56.810Z,95426.88
2019-02-04T11:17:23.508Z,95424.58
2019-02-04T11:19:50.202Z,95422.58
2019-02-04T11:22:16.856Z,95429.55
2019-02-04T11:24:43.610Z,95426.83
2019-02-04T11:27:10.368Z,95430.63
2019-02-04T11:29:36.882Z,95422.97
2019-02-04T11:32:03.586Z,95425.45
2019-02-04T11:34:30.247Z,95426.95
2019-02-04T11:36:56.881Z,95431.01
2019-02-04T11:39:23.566Z,95429.22
2019-02-04T11:41:50.315Z,95429.33
2019-02-04T11:44:16.971Z,95429.08
2019-02-04T11:46:43.778Z,95432.02
2019-02-04T11:49:10.294Z,95427.14
2019-02-04T11:51:36.895Z,95425.06
2019-02-04T11:54:03.543Z,95417.30
2019-02-04T11:56:30.235Z,95415.28
2019-02-04T11:58:56.886Z,95411.53
2019-02-04T12:01:23.555Z,95408.03
2019-02-04T12:03:50.217Z,95424.88
2019-02-04T12:06:17.572Z,95420.17
2019-02-04T12:08:43.562Z,95414.41
2019-02-04T12:11:10.207Z,95418.23
2019-02-04T12:13:36.889Z,95416.51
2019-02-04T12:16:03.540Z,95413.08
2019-02-04T12:18:30.189Z,95410.86
2019-02-04T12:20:56.955Z,95410.09
2019-02-04T12:23:23.606Z,95391.64
2019-02-04T12:25:50.264Z,95403.31
2019-02-04T12:28:16.933Z,95406.09
2019-02-04T12:30:43.658Z,95408.69
2019-02-04T12:33:10.448Z,95398.17
2019-02-04T12:35:37.088Z,95410.59
2019-02-04T12:38:03.792Z,95415.03
2019-02-04T12:40:30.484Z,95402.47
2019-02-04T12:42:57.148Z,95408.95
2019-02-04T12:45:23.837Z,95404.31
2019-02-04T12:47:50.496Z,95402.93
2019-02-04T12:50:17.152Z,95409.25
2019-02-04T12:52:43.931Z,95403.92
2019-02-04T12:55:13.633Z,95401.22
2019-02-04T12:57:40.302Z,95399.86
2019-02-04T13:00:06.953Z,95402.47
2019-02-04T13:02:33.638Z,95399.19
2019-02-04T13:05:00.429Z,95395.88
2019-02-04T13:07:26.964Z,95409.22
2019-02-04T13:09:53.606Z,95403.81
2019-02-04T13:12:20.261Z,95412.88
2019-02-04T13:14:48.229Z,95402.86
2019-02-04T13:17:13.611Z,95400.58
2019-02-04T13:19:40.290Z,95402.98
2019-02-04T13:22:06.957Z,95401.47
2019-02-04T13:24:33.608Z,95397.48
2019-02-04T13:27:00.263Z,95395.91
2019-02-04T13:29:26.959Z,95396.59
2019-02-04T13:31:53.612Z,95405.78
2019-02-04T13:34:20.276Z,95406.27
2019-02-04T13:36:46.938Z,95410.80
2019-02-04T13:39:15.769Z,95415.27
2019-02-04T13:41:42.463Z,95411.34
2019-02-04T13:44:09.142Z,95417.69
2019-02-04T13:46:35.835Z,95414.23
2019-02-04T13:49:02.584Z,95419.16
2019-02-04T13:51:30.451Z,95422.03
2019-02-04T13:53:57.283Z,95424.67
2019-02-04T13:56:22.644Z,95427.79
2019-02-04T13:58:49.299Z,95426.15
2019-02-04T14:01:15.949Z,95425.91
2019-02-04T14:03:42.593Z,95430.44
2019-02-04T14:06:09.237Z,95435.63
2019-02-04T14:08:35.889Z,95424.44
2019-02-04T14:11:02.547Z,95419.22
2019-02-04T14:13:29.182Z,95416.71
2019-02-04T14:15:55.880Z,95419.23
2019-02-04T14:18:26.319Z,95394.45
2019-02-04T14:20:49.382Z,95415.63
2019-02-04T14:23:16.089Z,95408.96
2019-02-04T14:25:42.772Z,95410.45
2019-02-04T14:28:09.361Z,95411.88
2019-02-04T14:30:36.012Z,95417.14
2019-02-04T14:33:02.776Z,95412.17
2019-02-04T14:35:29.419Z,95418.98
2019-02-04T14:37:56.083Z,95411.69
2019-02-04T14:40:22.722Z,95407.80
2019-02-04T14:42:49.393Z,95406.27
2019-02-04T14:45:16.062Z,95404.03
2019-02-04T14:47:42.696Z,95407.37
2019-02-04T14:50:09.401Z,95412.50
2019-02-04T14:52:36.058Z,95410.19
2019-02-04T14:55:02.706Z,95402.35
2019-02-04T14:57:29.406Z,95405.93
2019-02-04T14:59:56.096Z,95397.80
2019-02-04T15:02:22.768Z,95404.53
2019-02-04T15:04:49.594Z,95402.22
2019-02-04T15:07:16.248Z,95400.88
2019-02-04T15:09:42.932Z,95398.90
2019-02-04T15:12:09.613Z,95396.48
2019-02-04T15:14:36.697Z,95397.37
2019-02-04T15:17:03.335Z,95401.77
2019-02-04T15:19:30.021Z,95399.23
2019-02-04T15:21:56.687Z,95397.08
2019-02-04T15:24:23.342Z,95395.30
2019-02-04T15:26:50.146Z,95408.25
2019-02-04T15:29:16.782Z,95414.66
2019-02-04T15:31:43.459Z,95421.41
2019-02-04T15:34:10.103Z,95410.28
2019-02-04T15:36:36.851Z,95412.59
2019-02-04T15:39:03.503Z,95416.81
2019-02-04T15:41:32.793Z,95416.95
2019-02-04T15:43:56.889Z,95418.09
2019-02-04T15:46:23.648Z,95419.41
2019-02-04T15:48:50.332Z,95420.11
2019-02-04T15:51:16.982Z,95424.53
2019-02-04T15:53:43.670Z,95421.79
2019-02-04T15:56:10.486Z,95426.05
2019-02-04T15:58:37.132Z,95425.63
2019-02-04T16:01:04.802Z,95430.03
2019-02-04T16:03:30.433Z,95430.48
2019-02-04T16:05:57.087Z,95423.44
2019-02-04T16:08:23.740Z,95437.73
2019-02-04T16:10:50.433Z,95440.59
2019-02-04T16:13:17.080Z,95435.16
2019-02-04T16:15:43.786Z,95436.39
2019-02-04T16:18:10.429Z,95442.27
2019-02-04T16:20:37.191Z,95447.89
2019-02-04T16:23:03.904Z,95449.61
2019-02-04T16:25:30.544Z,95448.16
2019-02-04T16:27:57.187Z,95448.38
2019-02-04T16:30:23.956Z,95451.23
2019-02-04T16:32:52.843Z,95456.34
2019-02-04T16:35:17.278Z,95460.59
2019-02-04T16:37:43.932Z,95470.83
2019-02-04T16:40:10.620Z,95474.16
2019-02-04T16:42:37.257Z,95472.16
2019-02-04T16:45:03.907Z,95475.83
2019-02-04T16:47:30.569Z,95484.72
2019-02-04T16:49:57.205Z,95483.52
2019-02-04T16:52:23.845Z,95482.66
2019-02-04T16:54:50.489Z,95484.72
2019-02-04T16:57:17.137Z,95485.47
2019-02-04T16:59:43.878Z,95492.58
2019-02-04T17:02:10.556Z,95497.77
2019-02-04T17:04:37.232Z,95495.05
2019-02-04T17:07:03.915Z,95503.52
2019-02-04T17:09:30.553Z,95501.39
2019-02-04T17:11:57.196Z,95500.35
2019-02-04T17:14:23.849Z,95502.41
2019-02-04T17:16:50.495Z,95511.35
2019-02-04T17:19:17.137Z,95507.84
2019-02-04T17:21:43.773Z,95514.69
2019-02-04T17:24:10.431Z,95516.84
2019-02-04T17:26:37.077Z,95522.16
2019-02-04T17:29:03.793Z,95519.91
2019-02-04T17:31:30.453Z,95523.70
2019-02-04T17:33:57.132Z,95533.68
2019-02-04T17:36:23.773Z,95528.50
2019-02-04T17:38:50.465Z,95536.31
2019-02-04T17:41:17.102Z,95536.88
2019-02-04T17:43:43.786Z,95534.69
2019-02-04T17:46:10.424Z,95539.13
2019-02-04T17:48:37.070Z,95536.48
2019-02-04T17:51:03.712Z,95552.53
2019-02-04T17:53:34.277Z,95537.52
2019-02-04T17:55:57.072Z,95539.13
2019-02-04T17:58:23.716Z,95541.84
2019-02-04T18:00:50.403Z,95534.61
2019-02-04T18:03:17.082Z,95545.86
2019-02-04T18:05:43.733Z,95549.52
2019-02-04T18:08:10.373Z,95549.65
2019-02-04T18:10:37.023Z,95547.02
2019-02-04T18:13:03.665Z,95558.27
2019-02-04T18:15:30.302Z,95563.20
2019-02-04T18:17:56.964Z,95564.45
2019-02-04T18:20:23.600Z,95569.03
2019-02-04T18:22:50.311Z,95572.59
2019-02-04T18:25:16.949Z,95567.94
2019-02-04T18:27:43.618Z,95575.77
2019-02-04T18:30:10.256Z,95575.27
2019-02-04T18:32:36.898Z,95570.59
2019-02-04T18:35:03.590Z,95567.92
2019-02-04T18:37:30.281Z,95567.30
2019-02-04T18:39:56.917Z,95567.09
2019-02-04T18:42:23.552Z,95570.75
2019-02-04T18:44:50.292Z,95582.27
2019-02-04T18:47:16.880Z,95579.06
2019-02-04T18:49:43.544Z,95576.58
2019-02-04T18:52:10.226Z,95581.52
2019-02-04T18:54:36.868Z,95585.91
2019-02-04T18:57:03.511Z,95585.16
2019-02-04T18:59:30.165Z,95583.17
2019-02-04T19:01:56.853Z,95587.36
2019-02-04T19:04:23.491Z,95583.95
2019-02-04T19:06:50.125Z,95586.59
2019-02-04T19:09:16.811Z,95581.52
2019-02-04T19:11:43.487Z,95588.91
2019-02-04T19:14:10.124Z,95590.80
2019-02-04T19:16:36.793Z,95596.37
2019-02-04T19:19:03.429Z,95592.58
2019-02-04T19:21:30.116Z,95590.95
2019-02-04T19:23:56.766Z,95580.98
2019-02-04T19:26:23.408Z,95580.87
2019-02-04T19:28:50.991Z,95581.50
2019-02-04T19:31:16.776Z,95583.78
2019-02-04T19:33:43.461Z,95585.40
2019-02-04T19:36:11.376Z,95582.75
2019-02-04T19:38:36.756Z,95589.59
2019-02-04T19:41:03.399Z,95583.80
2019-02-04T19:43:30.042Z,95582.78
2019-02-04T19:45:56.685Z,95581.27
2019-02-04T19:48:23.341Z,95584.05
2019-02-04T19:50:49.984Z,95583.03
2019-02-04T19:53:16.662Z,95583.66
2019-02-04T19:55:43.340Z,95582.78
2019-02-04T19:58:09.993Z,95587.72
2019-02-04T20:00:36.644Z,95598.05
2019-02-04T20:03:03.287Z,95592.12
2019-02-04T20:05:29.943Z,95585.56
2019-02-04T20:07:56.607Z,95595.68
2019-02-04T20:10:23.253Z,95599.20
2019-02-04T20:12:49.903Z,95599.72
2019-02-04T20:15:16.597Z,95599.34
2019-02-04T20:17:43.239Z,95601.88
2019-02-04T20:20:09.898Z,95601.86
2019-02-04T20:22:36.577Z,95602.63
2019-02-04T20:25:03.219Z,95604.16
2019-02-04T20:27:29.902Z,95610.10
2019-02-04T20:29:56.555Z,95609.58
2019-02-04T20:32:23.234Z,95615.91
2019-02-04T20:34:49.871Z,95610.98
2019-02-04T20:37:16.511Z,95609.34
2019-02-04T20:39:43.156Z,95617.54
2019-02-04T20:42:09.842Z,95614.63
2019-02-04T20:44:36.484Z,95615.02
2019-02-04T20:47:03.122Z,95612.88
2019-02-04T20:49:29.776Z,95614.53
2019-02-04T20:51:56.430Z,95611.37
2019-02-04T20:54:23.111Z,95609.23
2019-02-04T20:56:49.766Z,95605.95
2019-02-04T20:59:16.412Z,95618.57
2019-02-04T21:01:43.047Z,95614.17
2019-02-04T21:04:09.727Z,95613.89
2019-02-04T21:06:36.403Z,95608.71
2019-02-04T21:09:03.054Z,95610.13
2019-02-04T21:11:29.697Z,95619.20
2019-02-04T21:13:56.342Z,95612.27
2019-02-04T21:16:22.990Z,95617.94
2019-02-04T21:18:49.719Z,95613.54
2019-02-04T21:21:16.357Z,95613.41
2019-02-04T21:23:43.009Z,95609.88
2019-02-04T21:26:09.652Z,95606.59
2019-02-04T21:28:37.549Z,95608.63
2019-02-04T21:31:02.970Z,95619.59
2019-02-04T21:33:29.613Z,95616.30
2019-02-04T21:35:56.298Z,95615.67
2019-02-04T21:38:25.584Z,95618.70
2019-02-04T21:40:49.613Z,95616.83
2019-02-04T21:43:16.250Z,95614.43
2019-02-04T21:45:42.895Z,95621.88
2019-02-04T21:48:09.666Z,95623.75
2019-02-04T21:50:36.209Z,95624.90
2019-02-04T21:53:02.852Z,95624.41
2019-02-04T21:55:29.495Z,95620.22
2019-02-04T21:57:56.149Z,95621.36
2019-02-04T22:00:22.827Z,95624.14
2019-02-04T22:02:49.476Z,95622.11
2019-02-04T22:05:16.146Z,95627.69
2019-02-04T22:07:42.790Z,95626.55
2019-02-04T22:10:09.429Z,95619.84
2019-02-04T22:12:36.113Z,95619.61
2019-02-04T22:15:02.762Z,95619.33
2019-02-04T22:17:29.470Z,95624.77
2019-02-04T22:19:56.131Z,95619.47
2019-02-04T22:22:22.778Z,95622.75
2019-02-04T22:24:49.462Z,95627.78
2019-02-04T22:27:16.149Z,95634.61
2019-02-04T22:29:42.794Z,95636.38
2019-02-04T22:32:09.437Z,95633.98
2019-02-04T22:34:36.097Z,95634.23
2019-02-04T22:37:02.737Z,95638.12
2019-02-04T22:39:29.387Z,95642.69
2019-02-04T22:41:56.031Z,95642.29
2019-02-04T22:44:22.730Z,95642.13
2019-02-04T22:46:49.423Z,95640.39
2019-02-04T22:49:16.097Z,95637.86
2019-02-04T22:51:42.734Z,95639.25
2019-02-04T22:54:09.463Z,95639.25
2019-02-04T22:56:36.146Z,95637.20
2019-02-04T22:59:02.789Z,95641.51
2019-02-04T23:01:29.479Z,95657.15
2019-02-04T23:03:56.206Z,95659.16
2019-02-04T23:06:22.783Z,95653.37
2019-02-04T23:08:49.424Z,95647.80
2019-02-04T23:11:16.065Z,95645.05
2019-02-04T23:13:42.716Z,95642.14
2019-02-04T23:16:09.375Z,95645.16
2019-02-04T23:18:36.091Z,95642.25
2019-02-04T23:21:02.699Z,95640.09
2019-02-04T23:23:29.381Z,95637.33
2019-02-04T23:25:56.025Z,95631.91
2019-02-04T23:28:22.661Z,95636.19
2019-02-04T23:30:49.348Z,95632.65
2019-02-04T23:33:15.985Z,95631.52
2019-02-04T23:35:42.627Z,95619.55
2019-02-04T23:38:09.278Z,95616.02
2019-02-04T23:40:35.929Z,95617.27
2019-02-04T23:43:02.569Z,95607.83
2019-02-04T23:45:29.220Z,95610.22
2019-02-04T23:47:55.859Z,95613.23
2019-02-04T23:50:22.598Z,95613.35
2019-02-04T23:52:49.240Z,95618.41
2019-02-04T23:55:15.877Z,95623.06
2019-02-04T23:57:42.525Z,95627.22
